East Gull Lake, Minnesota
Current Conditions -  °F | °C
As of 2:53 AM on Saturday 29 Nov 2014 (Local Time) from KBRD Reporting Station
Overcast Overcast  
Wind Chill: 10°   Ceiling: 1000
Heat Index: 19°   Visibility: 7mi
Dew Point: 16°   Wind: 7mph
Humidity: 88%   Direction: 140°SE
Pressure: 29.55"   Gusts: NA
Location:  46.2895°N, 94.0683°W
Report Text: KBRD 290853Z AUTO 14006KT 7SM OVC010 M07/M09 A2955 RMK AO2 SLP029 T10721089 56025
Loading
Personal Weather Stations






























Interactive Weather Map New forecast layout! Learn more

10-Day Weather Forecast

Advertisements
Track Severe Weather on mobile